Time;durP1;ratioP1;P1;durP2;ratioP2;P2;SDS_P1;SDS_P2;PMS_P1;PMS_P2;Temp;Humidity;BMP_temperature;BMP_pressure;BME280_temperature;BME280_humidity;BME280_pressure;Samples;Min_cycle;Max_cycle;Signal;HPM_P1;HPM_P2
2023/10/09 00:00:50;;;;;;;50.42;36.15;;;;;;;26.72;nan;98215.13;4847563;29;20053;-64
2023/10/09 00:03:23;;;;;;;54.65;38.25;;;;;;;26.68;nan;98225.00;4844012;29;20049;-64
2023/10/09 00:05:53;;;;;;;45.47;36.30;;;;;;;26.68;nan;98222.28;4844918;29;20886;-64
2023/10/09 00:08:32;;;;;;;47.88;37.03;;;;;;;26.53;nan;98232.69;4850829;29;20254;-64
2023/10/09 00:11:17;;;;;;;54.03;39.67;;;;;;;26.64;nan;98234.84;4845669;29;20059;-65
2023/10/09 00:13:52;;;;;;;54.72;38.42;;;;;;;26.75;nan;98236.22;4837835;29;20061;-64
2023/10/09 00:16:36;;;;;;;49.53;38.00;;;;;;;26.69;nan;98239.34;4842382;29;20073;-64
2023/10/09 00:19:42;;;;;;;49.85;39.50;;;;;;;26.55;nan;98244.88;4839006;29;20420;-64
2023/10/09 00:22:10;;;;;;;56.10;39.45;;;;;;;26.63;nan;98246.84;4835664;29;20113;-64
2023/10/09 00:24:45;;;;;;;48.35;38.40;;;;;;;26.78;nan;98248.38;4840908;29;20061;-65
2023/10/09 00:27:15;;;;;;;51.63;39.17;;;;;;;26.92;nan;98251.88;4849956;29;20042;-64
2023/10/09 00:29:45;;;;;;;49.45;39.17;;;;;;;26.87;nan;98256.63;4850035;29;20049;-64
2023/10/09 00:32:26;;;;;;;50.90;38.20;;;;;;;26.79;nan;98253.50;4849180;29;20057;-64
2023/10/09 00:35:13;;;;;;;45.80;38.10;;;;;;;26.77;nan;98255.75;4851729;29;20198;-64
2023/10/09 00:37:43;;;;;;;51.08;39.50;;;;;;;26.71;nan;98262.41;4852252;29;20700;-64
2023/10/09 00:40:12;;;;;;;53.45;39.03;;;;;;;26.74;nan;98264.50;4851778;29;20057;-64
2023/10/09 00:42:42;;;;;;;46.13;38.83;;;;;;;26.72;nan;98266.75;4851658;29;20068;-64
2023/10/09 00:45:16;;;;;;;46.80;40.47;;;;;;;26.55;nan;98266.59;4838443;29;20057;-64
2023/10/09 00:47:47;;;;;;;46.78;38.67;;;;;;;26.76;nan;98265.00;4839100;29;20061;-64
2023/10/09 00:53:01;;;;;;;50.97;39.53;;;;;;;26.62;nan;98269.69;4853816;29;20152;-64
2023/10/09 00:58:14;;;;;;;49.97;39.40;;;;;;;26.40;nan;98274.28;4855062;29;20045;-64
2023/10/09 01:11:21;;;;;;;59.08;45.92;;;;;;;26.64;nan;98281.03;4856234;29;20064;-64
2023/10/09 01:16:22;;;;;;;55.40;42.95;;;;;;;26.53;nan;98293.25;4840306;29;20076;-64
2023/10/09 01:19:12;;;;;;;57.33;43.78;;;;;;;26.65;nan;98296.22;4856669;29;20549;-64
2023/10/09 01:21:42;;;;;;;55.50;43.80;;;;;;;26.73;nan;98298.22;4855745;29;20136;-64
2023/10/09 01:24:11;;;;;;;51.80;43.00;;;;;;;26.68;nan;98298.34;4854021;29;20057;-64
2023/10/09 01:26:46;;;;;;;55.65;44.75;;;;;;;26.45;nan;98304.84;4836918;29;20053;-64
2023/10/09 01:29:20;;;;;;;54.50;43.03;;;;;;;26.69;nan;98307.28;4862137;29;20060;-64
2023/10/09 01:31:54;;;;;;;51.08;42.10;;;;;;;26.85;nan;98314.03;4856154;29;20053;-64
2023/10/09 01:34:38;;;;;;;50.67;42.67;;;;;;;26.91;nan;98314.72;4855671;29;20082;-63
2023/10/09 01:37:28;;;;;;;;;;;;;;;26.81;nan;98313.81;4856098;29;20057;-64
2023/10/09 01:40:22;;;;;;;50.92;39.92;;;;;;;26.92;nan;98316.31;4855190;29;19942;-64
2023/10/09 01:42:49;;;;;;;52.28;41.47;;;;;;;27.04;nan;98325.50;4854627;29;20157;-64
2023/10/09 01:47:56;;;;;;;56.33;40.65;;;;;;;26.99;nan;98324.84;4856162;29;20558;-64
2023/10/09 01:50:31;;;;;;;53.75;42.15;;;;;;;27.11;nan;98331.34;4846021;29;20136;-64
2023/10/09 01:53:05;;;;;;;50.78;40.28;;;;;;;27.17;nan;98340.19;4868462;29;20053;-65
2023/10/09 01:55:39;;;;;;;51.13;40.00;;;;;;;27.25;nan;98339.44;4871977;29;20149;-65
2023/10/09 01:58:16;;;;;;;48.00;38.92;;;;;;;27.18;nan;98345.28;4870747;29;20057;-63
2023/10/09 02:00:49;;;;;;;48.97;40.10;;;;;;;27.16;nan;98344.00;4854732;29;20062;-63
2023/10/09 02:03:23;;;;;;;50.83;39.00;;;;;;;27.20;nan;98347.72;4854513;29;20069;-63
2023/10/09 02:05:59;;;;;;;52.00;39.55;;;;;;;27.28;nan;98344.25;4854874;29;20053;-65
2023/10/09 02:08:35;;;;;;;48.78;39.80;;;;;;;27.11;nan;98355.00;4854442;29;20049;-65
2023/10/09 02:11:07;;;;;;;46.15;38.20;;;;;;;27.30;nan;98362.97;4852483;29;20049;-65
2023/10/09 02:13:41;;;;;;;50.70;36.78;;;;;;;27.49;nan;98360.88;4852236;29;20077;-64
2023/10/09 02:16:15;;;;;;;48.63;34.80;;;;;;;27.68;nan;98358.75;4854705;29;20104;-64
2023/10/09 02:18:55;;;;;;;47.05;34.85;;;;;;;27.54;nan;98361.56;4843663;29;20057;-64
2023/10/09 02:21:39;;;;;;;45.17;33.25;;;;;;;27.75;nan;98367.25;4854107;29;20063;-64
2023/10/09 02:24:09;;;;;;;47.47;35.05;;;;;;;27.82;nan;98373.06;4853158;29;20486;-65
2023/10/09 02:31:51;;;;;;;50.63;33.78;;;;;;;27.78;nan;98379.47;4860577;29;20869;-65
2023/10/09 02:34:25;;;;;;;49.15;32.90;;;;;;;27.98;nan;98385.16;4853554;29;20093;-64
2023/10/09 02:37:00;;;;;;;48.08;32.50;;;;;;;28.22;nan;98387.53;4853409;29;20120;-65
2023/10/09 02:39:48;;;;;;;41.80;31.45;;;;;;;28.31;nan;98382.94;4852927;29;20490;-64
2023/10/09 02:42:23;;;;;;;42.03;31.45;;;;;;;28.43;nan;98388.56;4851939;29;20578;-65
2023/10/09 02:44:52;;;;;;;52.22;33.42;;;;;;;28.48;nan;98395.78;4854511;29;20067;-64
2023/10/09 02:47:29;;;;;;;43.30;32.63;;;;;;;28.52;nan;98399.47;4866008;29;20419;-64
2023/10/09 02:50:06;;;;;;;43.70;32.03;;;;;;;28.70;nan;98400.31;4855021;29;20487;-64
2023/10/09 02:52:40;;;;;;;44.75;34.65;;;;;;;28.77;nan;98404.19;4852929;29;20451;-64
2023/10/09 02:55:23;;;;;;;47.92;33.72;;;;;;;28.66;nan;98405.59;4854730;29;20050;-64
2023/10/09 02:58:06;;;;;;;44.92;33.03;;;;;;;28.62;nan;98412.00;4842526;29;20061;-64
2023/10/09 03:00:37;;;;;;;48.70;33.47;;;;;;;28.56;nan;98416.81;4853761;29;20550;-64
2023/10/09 03:03:07;;;;;;;57.47;33.95;;;;;;;28.67;nan;98417.31;4849923;29;20045;-64
2023/10/09 03:05:42;;;;;;;48.58;34.25;;;;;;;28.80;nan;98417.22;4847546;29;20054;-64
2023/10/09 03:08:16;;;;;;;42.45;30.73;;;;;;;28.82;nan;98414.97;4851976;29;20695;-64
2023/10/09 03:10:46;;;;;;;41.25;29.90;;;;;;;28.89;nan;98418.03;4843092;29;20502;-65
2023/10/09 03:13:19;;;;;;;41.50;31.13;;;;;;;29.01;nan;98422.84;4853786;29;20054;-64
2023/10/09 03:15:51;;;;;;;51.42;32.17;;;;;;;29.07;nan;98416.13;4854437;29;20053;-64
2023/10/09 03:18:21;;;;;;;49.45;31.67;;;;;;;29.16;nan;98427.84;4852227;29;20045;-64
2023/10/09 03:20:50;;;;;;;39.83;30.63;;;;;;;29.19;nan;98424.47;4854514;29;20717;-64
2023/10/09 03:23:19;;;;;;;51.20;31.58;;;;;;;29.15;nan;98426.25;4848524;29;20141;-64
2023/10/09 03:25:49;;;;;;;42.90;30.08;;;;;;;29.39;nan;98431.22;4852811;29;20485;-65
2023/10/09 03:28:19;;;;;;;40.30;30.00;;;;;;;29.31;nan;98432.84;4849225;29;20118;-64
2023/10/09 03:30:50;;;;;;;42.50;31.17;;;;;;;29.48;nan;98437.47;4852429;29;20141;-64
2023/10/09 03:33:20;;;;;;;46.90;29.95;;;;;;;29.59;nan;98440.69;4853307;29;20065;-64
2023/10/09 03:35:49;;;;;;;43.78;31.20;;;;;;;29.47;nan;98443.28;4853059;29;20049;-65
2023/10/09 03:38:19;;;;;;;44.10;31.13;;;;;;;29.75;nan;98444.50;4850688;29;20053;-65
2023/10/09 03:40:48;;;;;;;37.03;30.40;;;;;;;29.91;nan;98453.03;4837273;29;20061;-64
2023/10/09 03:43:19;;;;;;;39.22;27.42;;;;;;;30.13;nan;98450.09;4851750;29;20053;-64
2023/10/09 03:45:54;;;;;;;42.35;26.38;;;;;;;30.09;nan;98452.69;4853675;29;20064;-65
2023/10/09 03:48:31;;;;;;;42.33;27.25;;;;;;;30.06;nan;98456.03;4853173;29;20459;-64
2023/10/09 03:51:12;;;;;;;34.38;23.88;;;;;;;30.29;nan;98451.16;4852044;29;20065;-64
2023/10/09 03:53:42;;;;;;;40.20;23.92;;;;;;;29.89;nan;98456.09;4846061;29;20068;-64
2023/10/09 03:56:12;;;;;;;40.28;24.52;;;;;;;30.35;nan;98463.50;4847553;29;20056;-64
2023/10/09 03:58:44;;;;;;;39.20;23.23;;;;;;;30.54;nan;98466.66;4845212;29;20072;-65
2023/10/09 04:01:37;;;;;;;28.98;20.73;;;;;;;30.43;nan;98467.34;4846620;29;20420;-64
2023/10/09 04:04:10;;;;;;;;;;;;;;;30.53;nan;98467.00;4848747;29;20058;-64
2023/10/09 04:06:40;;;;;;;27.08;19.85;;;;;;;30.58;nan;98464.09;4839832;29;19932;-61
2023/10/09 04:12:12;;;;;;;30.27;19.15;;;;;;;30.93;nan;98475.63;4853320;29;20057;-64
2023/10/09 04:14:49;;;;;;;62.73;22.03;;;;;;;31.12;nan;98474.06;4852070;29;20065;-64
2023/10/09 04:17:34;;;;;;;34.20;20.15;;;;;;;31.56;nan;98478.09;4842417;29;20123;-64
2023/10/09 04:22:59;;;;;;;26.25;18.92;;;;;;;31.84;nan;98470.13;4850852;29;20057;-64
2023/10/09 04:25:32;;;;;;;34.15;20.67;;;;;;;31.94;nan;98472.44;4841253;29;20120;-64
2023/10/09 04:28:18;;;;;;;33.25;19.55;;;;;;;32.28;nan;98473.22;4854660;29;20053;-64
2023/10/09 04:30:55;;;;;;;30.02;19.23;;;;;;;32.25;nan;98479.41;4848603;29;20064;-64
2023/10/09 04:33:42;;;;;;;33.92;19.08;;;;;;;32.18;nan;98473.66;4844603;29;20049;-64
2023/10/09 04:36:46;;;;;;;29.92;17.90;;;;;;;32.29;nan;98481.13;4841923;29;20049;-64
2023/10/09 04:41:51;;;;;;;27.02;16.10;;;;;;;32.82;nan;98484.81;4835324;29;20045;-64
2023/10/09 04:44:35;;;;;;;26.38;16.00;;;;;;;33.30;nan;98486.72;4847085;29;21586;-64
2023/10/09 05:03:07;;;;;;;27.10;15.25;;;;;;;33.46;nan;98486.81;4845708;29;20053;-63
2023/10/09 05:08:21;;;;;;;25.20;14.23;;;;;;;33.79;nan;98488.19;4842296;29;20057;-64
2023/10/09 05:16:19;;;;;;;22.45;15.55;;;;;;;34.01;nan;98486.03;4858202;29;20613;-65
2023/10/09 05:19:07;;;;;;;29.92;16.27;;;;;;;34.10;nan;98487.47;4849133;29;20136;-64
2023/10/09 05:37:43;;;;;;;23.25;15.35;;;;;;;34.31;nan;98489.19;4847809;29;20049;-64
2023/10/09 05:42:57;;;;;;;20.48;15.70;;;;;;;34.46;nan;98482.91;4843925;29;20057;-63
2023/10/09 05:46:02;;;;;;;26.90;14.98;;;;;;;34.40;nan;98479.63;4851247;29;20106;-64
2023/10/09 05:48:54;;;;;;;;;;;;;;;34.29;nan;98478.56;4847777;29;20050;-63
2023/10/09 06:03:23;;;;;;;28.52;15.85;;;;;;;34.54;nan;98462.69;4861482;29;20858;-64
2023/10/09 06:08:12;;;;;;;25.88;16.85;;;;;;;34.06;nan;98445.34;4841585;29;20069;-65
2023/10/09 06:10:42;;;;;;;25.02;17.33;;;;;;;33.86;nan;98440.09;4850411;29;20057;-65
2023/10/09 06:13:37;;;;;;;26.50;18.23;;;;;;;33.67;nan;98438.00;4846501;29;20454;-65
2023/10/09 06:16:19;;;;;;;23.05;16.95;;;;;;;33.63;nan;98437.06;4850529;29;20049;-65
2023/10/09 06:18:58;;;;;;;30.27;18.52;;;;;;;33.47;nan;98439.75;4846540;29;20053;-65
2023/10/09 06:24:17;;;;;;;26.27;16.90;;;;;;;33.69;nan;98436.50;4842110;29;20058;-69
2023/10/09 06:29:50;;;;;;;23.80;18.15;;;;;;;33.38;nan;98431.66;4850557;29;20063;-69
2023/10/09 06:34:52;;;;;;;29.67;19.05;;;;;;;33.39;nan;98416.00;4848001;29;20096;-69
2023/10/09 06:47:56;;;;;;;22.60;16.98;;;;;;;33.67;nan;98403.09;4844841;29;20057;-68
2023/10/09 06:50:25;;;;;;;28.27;19.15;;;;;;;33.57;nan;98389.03;4850535;29;20060;-68
2023/10/09 06:53:18;;;;;;;34.33;20.27;;;;;;;33.46;nan;98383.22;4858140;29;20506;-69
2023/10/09 06:56:01;;;;;;;24.48;17.48;;;;;;;33.55;nan;98385.84;4843149;29;20504;-68
2023/10/09 06:58:41;;;;;;;26.95;18.85;;;;;;;33.67;nan;98383.06;4853934;29;20049;-68
2023/10/09 07:01:28;;;;;;;29.45;20.52;;;;;;;33.15;nan;98383.94;4837930;29;20058;-68
2023/10/09 07:04:10;;;;;;;29.08;19.45;;;;;;;32.98;nan;98371.25;4850394;29;20692;-68
2023/10/09 07:15:01;;;;;;;86.27;78.30;;;;;;;32.79;nan;98351.91;4844108;29;20077;-67
2023/10/09 07:22:53;;;;;;;105.88;96.10;;;;;;;32.74;nan;98349.41;4844718;29;20181;-67
2023/10/09 07:25:41;;;;;;;42.50;26.38;;;;;;;32.77;nan;98334.97;4848560;29;20065;-67
2023/10/09 07:28:36;;;;;;;100.32;90.38;;;;;;;32.60;nan;98329.72;4853385;29;20050;-67
2023/10/09 07:31:09;;;;;;;68.57;61.50;;;;;;;32.61;nan;98333.28;4851996;29;20049;-68
2023/10/09 07:34:06;;;;;;;51.85;43.28;;;;;;;32.61;nan;98336.81;4846493;29;20154;-67
2023/10/09 07:36:37;;;;;;;56.78;50.75;;;;;;;32.61;nan;98334.06;4862973;29;20168;-66
2023/10/09 07:39:13;;;;;;;56.42;50.55;;;;;;;32.62;nan;98329.41;4865858;29;20061;-68
2023/10/09 07:41:56;;;;;;;43.67;27.98;;;;;;;32.36;nan;98318.78;4847876;29;20057;-68
2023/10/09 07:44:36;;;;;;;31.83;27.00;;;;;;;32.31;nan;98308.84;4840709;29;20064;-67
2023/10/09 07:47:19;;;;;;;43.90;34.17;;;;;;;32.03;nan;98303.25;4855509;29;20293;-67
2023/10/09 07:49:53;;;;;;;37.40;33.58;;;;;;;32.17;nan;98296.66;4840456;29;20049;-68
2023/10/09 07:52:23;;;;;;;34.67;30.92;;;;;;;31.98;nan;98292.53;4832558;29;20072;-68
2023/10/09 07:55:01;;;;;;;29.00;24.38;;;;;;;32.11;nan;98290.63;4849571;29;20053;-67
2023/10/09 07:57:38;;;;;;;38.28;34.15;;;;;;;32.25;nan;98282.03;4848108;29;20053;-68
2023/10/09 08:00:12;;;;;;;35.05;24.02;;;;;;;32.39;nan;98277.00;4844354;29;20050;-67
2023/10/09 08:02:41;;;;;;;34.67;24.80;;;;;;;32.38;nan;98278.13;4839293;29;20053;-67
2023/10/09 08:05:21;;;;;;;27.00;24.03;;;;;;;32.43;nan;98275.94;4854007;29;20065;-67
2023/10/09 08:13:56;;;;;;;40.83;33.75;;;;;;;32.33;nan;98262.72;4847310;29;20087;-68
2023/10/09 08:16:36;;;;;;;38.92;34.00;;;;;;;32.33;nan;98259.19;4856251;29;20048;-67
2023/10/09 08:24:49;;;;;;;37.53;31.92;;;;;;;32.34;nan;98244.34;4843668;29;20068;-68
2023/10/09 08:33:02;;;;;;;39.42;32.60;;;;;;;32.20;nan;98224.72;4848801;29;20189;-68
2023/10/09 08:35:51;;;;;;;33.95;29.15;;;;;;;32.19;nan;98220.38;4838326;29;20563;-68
2023/10/09 08:38:23;;;;;;;38.78;31.17;;;;;;;32.13;nan;98213.53;4845984;29;20386;-68
2023/10/09 08:40:58;;;;;;;29.77;26.40;;;;;;;32.07;nan;98208.28;4850136;29;20049;-67
2023/10/09 08:43:30;;;;;;;33.58;25.67;;;;;;;32.01;nan;98203.34;4834535;29;20054;-67
2023/10/09 08:46:01;;;;;;;28.23;23.98;;;;;;;32.05;nan;98193.28;4835138;29;20053;-68
2023/10/09 08:48:32;;;;;;;31.73;22.48;;;;;;;32.11;nan;98193.91;4854434;29;20045;-68
2023/10/09 08:51:06;;;;;;;32.75;22.85;;;;;;;32.02;nan;98186.56;4846641;29;20053;-69
2023/10/09 08:53:42;;;;;;;30.77;24.55;;;;;;;32.05;nan;98177.66;4846009;29;20164;-68
2023/10/09 08:56:21;;;;;;;26.48;20.52;;;;;;;32.10;nan;98176.66;4837166;29;20049;-68
2023/10/09 08:59:01;;;;;;;31.75;22.27;;;;;;;32.06;nan;98176.53;4843184;29;20703;-68
2023/10/09 09:01:34;;;;;;;25.83;19.65;;;;;;;31.90;nan;98175.66;4845787;29;20729;-67
2023/10/09 09:04:03;;;;;;;28.10;22.27;;;;;;;31.88;nan;98161.47;4851977;29;20064;-68
2023/10/09 09:06:41;;;;;;;30.98;20.42;;;;;;;31.82;nan;98164.81;4841660;29;20132;-68
2023/10/09 09:09:15;;;;;;;28.77;22.50;;;;;;;31.75;nan;98161.84;4838127;29;20067;-66
2023/10/09 09:11:48;;;;;;;24.95;20.45;;;;;;;31.84;nan;98155.09;4848164;29;20075;-67
2023/10/09 09:14:22;;;;;;;22.65;20.25;;;;;;;31.85;nan;98153.16;4843602;29;20056;-67
2023/10/09 09:16:52;;;;;;;24.95;21.20;;;;;;;31.80;nan;98148.72;4845104;29;20580;-68
2023/10/09 09:19:32;;;;;;;25.67;19.00;;;;;;;31.64;nan;98147.84;4851535;29;20056;-67
2023/10/09 09:22:14;;;;;;;31.92;20.95;;;;;;;31.57;nan;98148.41;4855305;29;20822;-68
2023/10/09 09:25:02;;;;;;;28.10;19.45;;;;;;;31.47;nan;98150.75;4854160;29;20521;-68
2023/10/09 09:28:09;;;;;;;22.60;20.05;;;;;;;31.40;nan;98139.59;4843195;29;20061;-68
2023/10/09 09:30:42;;;;;;;27.25;19.05;;;;;;;31.28;nan;98145.06;4849186;29;20057;-68
2023/10/09 09:33:32;;;;;;;29.15;20.05;;;;;;;31.23;nan;98148.03;4849411;29;20065;-67
2023/10/09 09:36:06;;;;;;;29.33;19.20;;;;;;;31.23;nan;98148.03;4850946;29;20072;-68
2023/10/09 09:38:47;;;;;;;;;;;;;;;;;;;;;
2023/10/09 09:41:13;;;;;;;22.85;20.05;;;;;;;31.32;nan;98138.56;4847735;29;20058;-68
2023/10/09 09:43:46;;;;;;;26.00;19.55;;;;;;;31.36;nan;98144.97;4845438;29;20141;-67
2023/10/09 09:46:15;;;;;;;;;;;;;;;31.39;nan;98151.69;4853005;29;20470;-67
2023/10/09 09:48:47;;;;;;;25.88;19.58;;;;;;;31.41;nan;98146.66;4838934;29;19927;-68
2023/10/09 09:51:17;;;;;;;28.10;19.88;;;;;;;31.36;nan;98135.94;4850726;29;20505;-67
2023/10/09 09:53:50;;;;;;;27.95;20.10;;;;;;;31.21;nan;98140.94;4858006;29;20061;-67
2023/10/09 09:56:24;;;;;;;25.77;19.67;;;;;;;31.21;nan;98142.88;4854342;29;20057;-68
2023/10/09 09:58:56;;;;;;;30.40;19.92;;;;;;;31.20;nan;98138.56;4851641;29;20553;-68
2023/10/09 10:01:32;;;;;;;28.33;19.33;;;;;;;31.18;nan;98125.22;4852249;29;20494;-67
2023/10/09 10:04:20;;;;;;;25.00;19.88;;;;;;;31.19;nan;98115.09;4850334;29;20132;-69
2023/10/09 10:06:52;;;;;;;23.15;19.52;;;;;;;31.17;nan;98117.34;4851921;29;20069;-67
2023/10/09 10:09:40;;;;;;;22.45;19.65;;;;;;;31.06;nan;98122.50;4847431;29;20076;-68
2023/10/09 10:12:11;;;;;;;22.38;20.02;;;;;;;31.02;nan;98128.97;4849334;29;20168;-67
2023/10/09 10:14:58;;;;;;;21.90;18.90;;;;;;;30.98;nan;98126.06;4845012;29;20084;-67
2023/10/09 10:17:29;;;;;;;21.40;18.85;;;;;;;31.00;nan;98128.47;4846318;29;20077;-67
2023/10/09 10:20:14;;;;;;;21.65;19.33;;;;;;;30.95;nan;98121.28;4849046;29;20542;-68
2023/10/09 10:22:47;;;;;;;23.05;19.60;;;;;;;30.88;nan;98114.78;4847834;29;20064;-68
2023/10/09 10:26:14;;;;;;;26.13;19.35;;;;;;;30.89;nan;98114.44;4841016;29;20141;-69
2023/10/09 10:28:42;;;;;;;27.58;20.30;;;;;;;30.89;nan;98117.16;4838478;29;20061;-68
2023/10/09 10:31:15;;;;;;;26.75;19.13;;;;;;;30.89;nan;98110.94;4841778;29;20862;-67
2023/10/09 10:33:58;;;;;;;24.85;19.77;;;;;;;30.93;nan;98103.63;4849518;29;20050;-67
2023/10/09 10:36:27;;;;;;;21.80;19.48;;;;;;;30.93;nan;98100.91;4850706;29;20049;-67
2023/10/09 10:39:07;;;;;;;20.60;18.35;;;;;;;30.97;nan;98099.88;4847251;29;20046;-67
2023/10/09 10:41:54;;;;;;;24.38;17.80;;;;;;;30.94;nan;98086.06;4846568;29;20069;-67
2023/10/09 10:44:38;;;;;;;36.08;19.52;;;;;;;30.97;nan;98080.72;4851735;29;20050;-67
2023/10/09 10:47:57;;;;;;;28.45;18.85;;;;;;;30.97;nan;98086.19;4845984;29;20807;-68
2023/10/09 10:53:16;;;;;;;25.25;19.38;;;;;;;30.86;nan;98078.75;4852661;29;20049;-66
2023/10/09 10:56:34;;;;;;;30.70;19.70;;;;;;;30.80;nan;98082.88;4838908;29;20430;-67
2023/10/09 10:59:22;;;;;;;25.25;18.77;;;;;;;30.69;nan;98079.78;4833386;29;20058;-68
2023/10/09 11:07:09;;;;;;;21.90;19.67;;;;;;;30.40;nan;98068.97;4842362;29;20054;-68
2023/10/09 11:12:42;;;;;;;25.55;20.52;;;;;;;30.25;nan;98071.19;4842615;29;20068;-68
2023/10/09 11:18:16;;;;;;;27.45;19.55;;;;;;;30.32;nan;98087.03;4843618;29;20050;-67
2023/10/09 11:23:53;;;;;;;26.55;19.83;;;;;;;30.27;nan;98079.84;4841990;29;20125;-68
2023/10/09 11:26:25;;;;;;;23.33;20.00;;;;;;;30.23;nan;98092.59;4846350;29;20113;-68
2023/10/09 11:32:08;;;;;;;27.02;19.92;;;;;;;30.16;nan;98088.81;4835106;29;20077;-67
2023/10/09 11:34:38;;;;;;;27.75;20.58;;;;;;;30.11;nan;98103.47;4848186;29;20057;-67
2023/10/09 11:37:15;;;;;;;27.92;20.33;;;;;;;30.11;nan;98105.41;4849663;29;20775;-68
2023/10/09 11:39:51;;;;;;;25.10;20.63;;;;;;;30.07;nan;98101.75;4852117;29;20056;-68
2023/10/09 11:42:48;;;;;;;25.85;20.05;;;;;;;30.05;nan;98099.31;4853588;29;20133;-68
2023/10/09 11:45:37;;;;;;;22.15;19.77;;;;;;;30.04;nan;98102.41;4854113;29;20050;-68
2023/10/09 11:48:33;;;;;;;28.23;19.52;;;;;;;30.03;nan;98101.63;4854671;29;20060;-68
2023/10/09 11:53:49;;;;;;;25.35;18.98;;;;;;;30.03;nan;98078.97;4848412;29;20126;-67
2023/10/09 11:56:19;;;;;;;32.15;19.98;;;;;;;30.00;nan;98066.78;4848869;29;20513;-68
2023/10/09 11:58:54;;;;;;;25.10;21.00;;;;;;;30.01;nan;98060.16;4843301;29;20058;-67
2023/10/09 12:01:25;;;;;;;24.20;19.02;;;;;;;29.98;nan;98066.31;4855864;29;20053;-68
2023/10/09 12:03:55;;;;;;;23.65;18.75;;;;;;;30.00;nan;98063.25;4843718;29;20525;-67
2023/10/09 12:06:32;;;;;;;22.85;19.58;;;;;;;29.99;nan;98061.66;4845552;29;20057;-67
2023/10/09 12:09:05;;;;;;;31.77;19.17;;;;;;;29.97;nan;98058.44;4842340;29;20079;-68
2023/10/09 12:11:34;;;;;;;28.65;19.73;;;;;;;29.95;nan;98044.34;4846635;29;20494;-67
2023/10/09 12:14:09;;;;;;;25.60;19.77;;;;;;;29.95;nan;98047.88;4846749;29;20138;-67
2023/10/09 12:16:49;;;;;;;25.95;19.73;;;;;;;29.99;nan;98040.59;4840716;29;20164;-68
2023/10/09 12:19:19;;;;;;;40.50;23.30;;;;;;;30.03;nan;98038.78;4841574;29;20506;-68
2023/10/09 12:21:49;;;;;;;31.95;21.48;;;;;;;30.08;nan;98030.41;4837235;29;20061;-68
2023/10/09 12:24:18;;;;;;;31.17;20.73;;;;;;;30.08;nan;98040.50;4847599;29;20049;-68
2023/10/09 12:26:52;;;;;;;25.55;20.35;;;;;;;30.10;nan;98039.03;4836902;29;20084;-68
2023/10/09 12:29:23;;;;;;;28.08;20.02;;;;;;;30.07;nan;98050.63;4836559;29;20137;-68
2023/10/09 12:31:58;;;;;;;27.85;21.45;;;;;;;30.07;nan;98077.94;4843277;29;20060;-68
2023/10/09 12:34:29;;;;;;;23.35;18.80;;;;;;;30.08;nan;98078.75;4844521;29;20128;-68
2023/10/09 12:37:01;;;;;;;26.92;21.27;;;;;;;30.11;nan;98083.53;4839738;29;20386;-66
2023/10/09 12:39:34;;;;;;;30.75;21.80;;;;;;;30.11;nan;98087.06;4848188;29;20045;-66
2023/10/09 12:42:06;;;;;;;30.27;21.02;;;;;;;30.13;nan;98087.56;4832824;29;20150;-66
2023/10/09 12:44:39;;;;;;;32.33;22.27;;;;;;;30.06;nan;98106.41;4845675;29;20124;-65
2023/10/09 12:47:11;;;;;;;41.13;24.77;;;;;;;30.01;nan;98116.72;4837043;29;20085;-65
2023/10/09 12:49:43;;;;;;;36.43;23.73;;;;;;;30.03;nan;98109.81;4840717;29;20386;-65
2023/10/09 12:52:16;;;;;;;30.40;23.17;;;;;;;29.99;nan;98111.59;4842628;29;20046;-65
2023/10/09 12:54:46;;;;;;;33.67;24.95;;;;;;;30.00;nan;98115.94;4842618;29;20053;-65
2023/10/09 12:57:15;;;;;;;34.78;25.63;;;;;;;30.06;nan;98122.78;4841063;29;20058;-65
2023/10/09 12:59:48;;;;;;;34.58;24.98;;;;;;;29.94;nan;98132.84;4843539;29;20053;-65
2023/10/09 13:02:43;;;;;;;33.70;23.90;;;;;;;29.93;nan;98132.03;4840891;29;20205;-65
2023/10/09 13:05:24;;;;;;;30.08;23.63;;;;;;;29.83;nan;98126.94;4838914;29;20066;-66
2023/10/09 13:07:57;;;;;;;35.75;25.45;;;;;;;29.90;nan;98143.66;4841339;29;20137;-66
2023/10/09 13:10:31;;;;;;;32.28;23.17;;;;;;;29.97;nan;98138.44;4842868;29;20465;-65
2023/10/09 13:27:04;;;;;;;32.03;24.63;;;;;;;;;;5067991;27;20574;-66
2023/10/09 13:29:34;;;;;;;30.88;25.83;;;;;;;29.94;nan;98136.38;5056979;28;20048;-66
2023/10/09 13:32:13;;;;;;;40.55;26.23;;;;;;;29.91;nan;98134.31;5056413;28;20044;-65
2023/10/09 13:34:46;;;;;;;39.78;27.45;;;;;;;29.93;nan;98137.50;5072424;27;20103;-65
2023/10/09 13:37:21;;;;;;;;;;;;;;;29.97;nan;98137.63;5055486;28;20130;-66
2023/10/09 13:39:56;;;;;;;37.83;27.40;;;;;;;29.87;nan;98138.81;4719270;28;10000360;-64
2023/10/09 13:42:25;;;;;;;36.88;26.55;;;;;;;29.96;nan;98139.59;5067766;28;20174;-65
2023/10/09 13:44:55;;;;;;;43.60;27.38;;;;;;;29.97;nan;98135.72;5054685;28;20044;-65
2023/10/09 13:47:31;;;;;;;37.67;27.50;;;;;;;29.87;nan;98131.44;5055524;28;20110;-65
2023/10/09 13:50:00;;;;;;;32.63;26.73;;;;;;;29.94;nan;98130.91;5067236;27;20064;-64
2023/10/09 13:52:30;;;;;;;40.45;28.80;;;;;;;29.89;nan;98137.38;5067099;27;20191;-65
2023/10/09 13:55:15;;;;;;;42.35;29.08;;;;;;;29.76;nan;98126.69;5055437;28;20041;-65
2023/10/09 13:57:45;;;;;;;39.53;29.05;;;;;;;29.76;nan;98124.75;5053255;28;20040;-66
2023/10/09 14:00:32;;;;;;;39.47;29.80;;;;;;;29.75;nan;98125.88;5057921;28;20123;-65
2023/10/09 14:03:10;;;;;;;38.40;29.38;;;;;;;29.73;nan;98124.63;5055199;28;20044;-64
2023/10/09 14:06:10;;;;;;;46.55;30.08;;;;;;;29.62;nan;98118.75;5055880;28;20060;-65
2023/10/09 14:08:32;;;;;;;39.63;29.73;;;;;;;29.69;nan;98110.03;5042689;28;20053;-63
2023/10/09 14:11:03;;;;;;;37.55;29.10;;;;;;;29.61;nan;98103.47;5054079;28;20055;-63
2023/10/09 14:13:33;;;;;;;44.50;30.63;;;;;;;29.61;nan;98098.03;5061725;27;20797;-65
2023/10/09 14:16:02;;;;;;;44.33;29.42;;;;;;;29.62;nan;98093.38;5054073;28;20115;-64
2023/10/09 14:18:31;;;;;;;41.05;29.65;;;;;;;29.54;nan;98075.94;5042573;28;20048;-63
2023/10/09 14:21:16;;;;;;;39.92;29.90;;;;;;;29.46;nan;98063.16;5079122;27;20429;-63
2023/10/09 14:23:48;;;;;;;41.63;29.33;;;;;;;29.47;nan;98044.84;5062555;28;20044;-65
2023/10/09 14:26:18;;;;;;;44.88;27.95;;;;;;;29.45;nan;98040.50;5051632;28;20052;-64
2023/10/09 14:28:48;;;;;;;38.13;29.15;;;;;;;29.38;nan;98031.25;5045766;28;20098;-65
2023/10/09 14:31:26;;;;;;;36.97;27.88;;;;;;;29.28;nan;98024.22;5044832;28;20132;-64
2023/10/09 14:33:59;;;;;;;37.38;26.65;;;;;;;29.31;nan;98006.41;5040468;28;20045;-64
2023/10/09 14:36:33;;;;;;;47.53;26.65;;;;;;;29.34;nan;98003.06;5044241;28;20052;-65
2023/10/09 14:39:04;;;;;;;34.13;25.77;;;;;;;29.32;nan;97995.19;5052513;28;20053;-65
2023/10/09 14:41:34;;;;;;;32.15;27.17;;;;;;;29.30;nan;97988.44;5057194;28;20814;-65
2023/10/09 14:44:03;;;;;;;36.78;25.52;;;;;;;29.18;nan;97997.31;5055103;28;20771;-65
2023/10/09 14:46:33;;;;;;;38.38;25.02;;;;;;;29.19;nan;98015.31;5045822;28;20119;-65
2023/10/09 14:49:03;;;;;;;34.83;25.20;;;;;;;29.27;nan;98033.53;5047479;28;20408;-65
2023/10/09 14:51:33;;;;;;;33.00;25.50;;;;;;;29.34;nan;98052.94;5047446;28;20037;-65
2023/10/09 14:54:03;;;;;;;38.80;25.00;;;;;;;29.34;nan;98049.44;5045305;28;20045;-65
2023/10/09 14:56:36;;;;;;;39.25;25.63;;;;;;;29.30;nan;98045.75;5044314;28;20048;-65
2023/10/09 14:59:06;;;;;;;38.03;24.95;;;;;;;29.21;nan;98053.94;5049871;28;20051;-65
2023/10/09 15:01:35;;;;;;;35.83;25.67;;;;;;;29.16;nan;98053.34;5043592;28;20045;-64
2023/10/09 15:04:07;;;;;;;34.00;24.38;;;;;;;29.19;nan;98063.59;5025943;28;20092;-65
2023/10/09 15:06:38;;;;;;;37.38;26.75;;;;;;;29.16;nan;98062.34;5048391;28;20102;-65
2023/10/09 15:09:21;;;;;;;31.40;23.95;;;;;;;29.21;nan;98083.94;5040864;28;20053;-65
2023/10/09 15:11:54;;;;;;;;;;;;;;;29.21;nan;98091.34;5041708;28;20111;-65
2023/10/09 15:14:24;;;;;;;37.92;25.05;;;;;;;29.27;nan;98100.94;5029176;28;19936;-65
2023/10/09 15:16:54;;;;;;;34.15;24.38;;;;;;;29.29;nan;98095.97;5039530;28;20048;-65